This is the latest recevied weather packets stored in our database for station/object KF0RZX-13. If no packets are shown the sender has not sent any weather packets the latest 10 day(s).
| Time | Temp. | Humidity | Pressure | Rain* | Wind** | Luminosity | Snow |
|---|---|---|---|---|---|---|---|
| 1788139946 | 73° F | 44% | 764 mmHg | 0 in | - | - | - |
| 1788138145 | 75° F | 41% | 763.8 mmHg | 0 in | - | - | - |
| 1788136336 | 81° F | 32% | 763.8 mmHg | 0 in | - | - | - |
| 1788134531 | 79° F | 34% | 763.5 mmHg | 0 in | - | - | - |
| 1788132726 | 81° F | 32% | 763.8 mmHg | 0 in | - | - | - |
| 1788130921 | 81° F | 32% | 763.8 mmHg | 0 in | - | - | - |
| 1788129116 | 81° F | 32% | 763.8 mmHg | 0 in | - | - | - |
| 1788127311 | 79° F | 34% | 763.8 mmHg | 0 in | - | - | - |
| 1788125506 | 82° F | 28% | 764 mmHg | 0 in | - | - | - |
| 1788123701 | 86° F | 25% | 763.5 mmHg | 0 in | - | - | - |
| 1788121897 | 88° F | 24% | 763 mmHg | 0 in | - | - | - |
| 1788120091 | 88° F | 24% | 763 mmHg | 0 in | - | - | - |
| 1788118266 | 86° F | 25% | 763 mmHg | 0 in | - | - | - |
| 1788116461 | 86° F | 27% | 762.7 mmHg | 0 in | - | - | - |
| 1788114656 | 84° F | 27% | 763 mmHg | 0 in | - | - | - |
| 1788112853 | 84° F | 29% | 763 mmHg | 0 in | - | - | - |
| 1788111046 | 82° F | 30% | 763.3 mmHg | 0 in | - | - | - |
| 1788109241 | 81° F | 30% | 763.5 mmHg | 0 in | - | - | - |
| 1788107437 | 84° F | 29% | 763.8 mmHg | 0 in | - | - | - |
| 1788105631 | 81° F | 32% | 763.8 mmHg | 0 in | - | - | - |
| 1788103826 | 77° F | 39% | 763.8 mmHg | 0 in | - | - | - |
| 1788102021 | 73° F | 44% | 764 mmHg | 0 in | - | - | - |
| 1788100216 | 72° F | 50% | 763.8 mmHg | 0 in | - | - | - |
| 1788096581 | 63° F | 72% | 763.5 mmHg | 0 in | - | - | - |
| 1788094776 | 64° F | 64% | 763.5 mmHg | 0 in | - | - | - |
* Rain latest hour (hover to see other rain measurements)
** Current wind speed in m/s (hover to see current wind gust speed)